sensor_id;sensor_type;location;lat;lon;timestamp;P1;durP1;ratioP1;P2;durP2;ratioP2
10863;SDS011;5485;37.558;126.950;2023-10-13T00:00:34;21.00;;;16.67;;
10863;SDS011;5485;37.558;126.950;2023-10-13T00:03:08;19.88;;;16.00;;
10863;SDS011;5485;37.558;126.950;2023-10-13T00:05:41;20.17;;;17.38;;
10863;SDS011;5485;37.558;126.950;2023-10-13T00:08:09;20.98;;;16.80;;
10863;SDS011;5485;37.558;126.950;2023-10-13T00:10:39;20.58;;;16.95;;
10863;SDS011;5485;37.558;126.950;2023-10-13T00:13:05;24.02;;;17.65;;
10863;SDS011;5485;37.558;126.950;2023-10-13T00:18:37;18.65;;;16.50;;
10863;SDS011;5485;37.558;126.950;2023-10-13T00:21:08;18.85;;;16.98;;
10863;SDS011;5485;37.558;126.950;2023-10-13T00:23:42;21.58;;;16.45;;
10863;SDS011;5485;37.558;126.950;2023-10-13T00:26:19;18.88;;;16.90;;
10863;SDS011;5485;37.558;126.950;2023-10-13T00:28:53;19.42;;;15.48;;
10863;SDS011;5485;37.558;126.950;2023-10-13T00:31:39;20.92;;;16.98;;
10863;SDS011;5485;37.558;126.950;2023-10-13T00:34:11;22.10;;;16.95;;
10863;SDS011;5485;37.558;126.950;2023-10-13T00:36:50;18.38;;;16.40;;
10863;SDS011;5485;37.558;126.950;2023-10-13T00:39:35;18.58;;;16.67;;
10863;SDS011;5485;37.558;126.950;2023-10-13T00:42:06;22.40;;;17.25;;
10863;SDS011;5485;37.558;126.950;2023-10-13T00:44:35;20.45;;;16.75;;
10863;SDS011;5485;37.558;126.950;2023-10-13T00:47:13;18.88;;;15.98;;
10863;SDS011;5485;37.558;126.950;2023-10-13T00:50:03;18.73;;;15.68;;
10863;SDS011;5485;37.558;126.950;2023-10-13T00:52:31;17.40;;;15.45;;
10863;SDS011;5485;37.558;126.950;2023-10-13T00:55:01;17.30;;;15.45;;
10863;SDS011;5485;37.558;126.950;2023-10-13T00:57:30;18.48;;;16.50;;
10863;SDS011;5485;37.558;126.950;2023-10-13T00:59:57;17.77;;;15.70;;
10863;SDS011;5485;37.558;126.950;2023-10-13T01:02:25;21.92;;;16.52;;
10863;SDS011;5485;37.558;126.950;2023-10-13T01:05:07;17.67;;;15.75;;
10863;SDS011;5485;37.558;126.950;2023-10-13T01:07:45;19.60;;;17.20;;
10863;SDS011;5485;37.558;126.950;2023-10-13T01:10:20;20.02;;;15.93;;
10863;SDS011;5485;37.558;126.950;2023-10-13T01:12:58;20.35;;;16.92;;
10863;SDS011;5485;37.558;126.950;2023-10-13T01:15:27;21.42;;;17.42;;
10863;SDS011;5485;37.558;126.950;2023-10-13T01:18:08;19.27;;;16.02;;
10863;SDS011;5485;37.558;126.950;2023-10-13T01:20:39;18.33;;;16.52;;
10863;SDS011;5485;37.558;126.950;2023-10-13T01:23:14;19.23;;;16.63;;
10863;SDS011;5485;37.558;126.950;2023-10-13T01:25:44;21.02;;;16.80;;
10863;SDS011;5485;37.558;126.950;2023-10-13T01:28:13;22.13;;;17.45;;
10863;SDS011;5485;37.558;126.950;2023-10-13T01:30:44;20.58;;;16.50;;
10863;SDS011;5485;37.558;126.950;2023-10-13T01:33:22;23.70;;;16.75;;
10863;SDS011;5485;37.558;126.950;2023-10-13T01:35:54;19.73;;;16.02;;
10863;SDS011;5485;37.558;126.950;2023-10-13T01:38:24;18.83;;;15.40;;
10863;SDS011;5485;37.558;126.950;2023-10-13T01:40:52;20.92;;;17.75;;
10863;SDS011;5485;37.558;126.950;2023-10-13T01:43:22;21.73;;;16.45;;
10863;SDS011;5485;37.558;126.950;2023-10-13T01:45:49;21.55;;;17.90;;
10863;SDS011;5485;37.558;126.950;2023-10-13T01:48:16;23.33;;;18.15;;
10863;SDS011;5485;37.558;126.950;2023-10-13T01:50:45;19.08;;;17.08;;
10863;SDS011;5485;37.558;126.950;2023-10-13T01:53:13;19.10;;;17.10;;
10863;SDS011;5485;37.558;126.950;2023-10-13T01:55:43;20.98;;;17.23;;
10863;SDS011;5485;37.558;126.950;2023-10-13T01:58:10;18.52;;;16.58;;
10863;SDS011;5485;37.558;126.950;2023-10-13T02:00:44;17.92;;;16.02;;
10863;SDS011;5485;37.558;126.950;2023-10-13T02:03:13;19.98;;;17.60;;
10863;SDS011;5485;37.558;126.950;2023-10-13T02:05:43;23.15;;;18.30;;
10863;SDS011;5485;37.558;126.950;2023-10-13T02:08:14;20.08;;;17.75;;
10863;SDS011;5485;37.558;126.950;2023-10-13T02:10:52;19.48;;;17.08;;
10863;SDS011;5485;37.558;126.950;2023-10-13T02:13:21;21.73;;;17.52;;
10863;SDS011;5485;37.558;126.950;2023-10-13T02:15:52;21.83;;;17.58;;
10863;SDS011;5485;37.558;126.950;2023-10-13T02:18:27;20.55;;;16.83;;
10863;SDS011;5485;37.558;126.950;2023-10-13T02:21:07;21.48;;;18.13;;
10863;SDS011;5485;37.558;126.950;2023-10-13T02:23:40;21.40;;;19.00;;
10863;SDS011;5485;37.558;126.950;2023-10-13T02:26:33;21.75;;;19.40;;
10863;SDS011;5485;37.558;126.950;2023-10-13T02:29:04;23.45;;;19.45;;
10863;SDS011;5485;37.558;126.950;2023-10-13T02:31:38;26.35;;;19.50;;
10863;SDS011;5485;37.558;126.950;2023-10-13T02:34:08;23.27;;;18.52;;
10863;SDS011;5485;37.558;126.950;2023-10-13T02:36:38;24.15;;;19.00;;
10863;SDS011;5485;37.558;126.950;2023-10-13T02:39:17;23.40;;;19.48;;
10863;SDS011;5485;37.558;126.950;2023-10-13T02:41:53;22.33;;;19.55;;
10863;SDS011;5485;37.558;126.950;2023-10-13T02:44:21;22.23;;;19.70;;
10863;SDS011;5485;37.558;126.950;2023-10-13T02:46:57;22.05;;;18.95;;
10863;SDS011;5485;37.558;126.950;2023-10-13T02:49:25;21.70;;;19.48;;
10863;SDS011;5485;37.558;126.950;2023-10-13T02:51:53;23.23;;;18.98;;
10863;SDS011;5485;37.558;126.950;2023-10-13T02:54:21;20.85;;;18.38;;
10863;SDS011;5485;37.558;126.950;2023-10-13T02:56:55;22.00;;;18.83;;
10863;SDS011;5485;37.558;126.950;2023-10-13T02:59:23;21.13;;;18.60;;
10863;SDS011;5485;37.558;126.950;2023-10-13T03:02:04;23.17;;;17.65;;
10863;SDS011;5485;37.558;126.950;2023-10-13T03:04:51;18.48;;;16.58;;
10863;SDS011;5485;37.558;126.950;2023-10-13T03:07:34;19.70;;;16.85;;
10863;SDS011;5485;37.558;126.950;2023-10-13T03:10:03;19.85;;;17.73;;
10863;SDS011;5485;37.558;126.950;2023-10-13T03:12:37;19.90;;;17.83;;
10863;SDS011;5485;37.558;126.950;2023-10-13T03:15:05;19.77;;;17.33;;
10863;SDS011;5485;37.558;126.950;2023-10-13T03:17:39;18.48;;;16.42;;
10863;SDS011;5485;37.558;126.950;2023-10-13T03:20:15;22.30;;;17.30;;
10863;SDS011;5485;37.558;126.950;2023-10-13T03:22:59;18.05;;;16.20;;
10863;SDS011;5485;37.558;126.950;2023-10-13T03:25:26;17.83;;;16.02;;
10863;SDS011;5485;37.558;126.950;2023-10-13T03:28:02;18.67;;;15.32;;
10863;SDS011;5485;37.558;126.950;2023-10-13T03:30:30;23.73;;;14.90;;
10863;SDS011;5485;37.558;126.950;2023-10-13T03:33:18;17.02;;;13.98;;
10863;SDS011;5485;37.558;126.950;2023-10-13T03:35:54;19.30;;;13.43;;
10863;SDS011;5485;37.558;126.950;2023-10-13T03:38:30;24.00;;;13.43;;
10863;SDS011;5485;37.558;126.950;2023-10-13T03:41:01;14.00;;;12.32;;
10863;SDS011;5485;37.558;126.950;2023-10-13T03:43:45;15.20;;;11.10;;
10863;SDS011;5485;37.558;126.950;2023-10-13T03:46:17;12.45;;;11.18;;
10863;SDS011;5485;37.558;126.950;2023-10-13T03:48:47;15.00;;;11.63;;
10863;SDS011;5485;37.558;126.950;2023-10-13T03:51:22;16.25;;;12.85;;
10863;SDS011;5485;37.558;126.950;2023-10-13T03:53:56;17.00;;;13.85;;
10863;SDS011;5485;37.558;126.950;2023-10-13T03:56:24;17.70;;;14.20;;
10863;SDS011;5485;37.558;126.950;2023-10-13T03:59:12;14.38;;;13.02;;
10863;SDS011;5485;37.558;126.950;2023-10-13T04:01:42;15.65;;;14.07;;
10863;SDS011;5485;37.558;126.950;2023-10-13T04:04:09;19.05;;;14.75;;
10863;SDS011;5485;37.558;126.950;2023-10-13T04:06:37;18.58;;;15.35;;
10863;SDS011;5485;37.558;126.950;2023-10-13T04:09:19;20.13;;;17.95;;
10863;SDS011;5485;37.558;126.950;2023-10-13T04:11:57;20.10;;;17.60;;
10863;SDS011;5485;37.558;126.950;2023-10-13T04:14:31;22.00;;;18.35;;
10863;SDS011;5485;37.558;126.950;2023-10-13T04:17:20;18.92;;;17.10;;
10863;SDS011;5485;37.558;126.950;2023-10-13T04:19:55;19.92;;;17.92;;
10863;SDS011;5485;37.558;126.950;2023-10-13T04:22:35;21.58;;;18.52;;
10863;SDS011;5485;37.558;126.950;2023-10-13T04:25:12;24.70;;;18.88;;
10863;SDS011;5485;37.558;126.950;2023-10-13T04:28:14;22.80;;;18.40;;
10863;SDS011;5485;37.558;126.950;2023-10-13T04:31:01;20.33;;;18.17;;
10863;SDS011;5485;37.558;126.950;2023-10-13T04:33:39;20.85;;;18.40;;
10863;SDS011;5485;37.558;126.950;2023-10-13T04:36:21;22.05;;;19.85;;
10863;SDS011;5485;37.558;126.950;2023-10-13T04:39:08;23.27;;;18.42;;
10863;SDS011;5485;37.558;126.950;2023-10-13T04:44:03;22.20;;;18.33;;
10863;SDS011;5485;37.558;126.950;2023-10-13T04:46:50;22.02;;;18.60;;
10863;SDS011;5485;37.558;126.950;2023-10-13T04:49:20;20.75;;;18.52;;
10863;SDS011;5485;37.558;126.950;2023-10-13T04:52:05;20.95;;;18.15;;
10863;SDS011;5485;37.558;126.950;2023-10-13T04:54:42;20.15;;;18.13;;
10863;SDS011;5485;37.558;126.950;2023-10-13T04:57:23;23.38;;;19.10;;
10863;SDS011;5485;37.558;126.950;2023-10-13T05:00:08;26.15;;;20.27;;
10863;SDS011;5485;37.558;126.950;2023-10-13T05:02:42;27.40;;;20.27;;
10863;SDS011;5485;37.558;126.950;2023-10-13T05:05:28;22.45;;;19.38;;
10863;SDS011;5485;37.558;126.950;2023-10-13T05:07:55;23.38;;;20.77;;
10863;SDS011;5485;37.558;126.950;2023-10-13T05:10:40;25.35;;;22.02;;
10863;SDS011;5485;37.558;126.950;2023-10-13T05:13:28;23.27;;;20.23;;
10863;SDS011;5485;37.558;126.950;2023-10-13T05:16:13;23.73;;;20.75;;
10863;SDS011;5485;37.558;126.950;2023-10-13T05:18:58;23.67;;;19.65;;
10863;SDS011;5485;37.558;126.950;2023-10-13T05:21:43;23.92;;;19.23;;
10863;SDS011;5485;37.558;126.950;2023-10-13T05:24:28;21.08;;;18.85;;
10863;SDS011;5485;37.558;126.950;2023-10-13T05:27:14;23.30;;;20.80;;
10863;SDS011;5485;37.558;126.950;2023-10-13T05:29:59;25.55;;;20.55;;
10863;SDS011;5485;37.558;126.950;2023-10-13T05:32:44;23.17;;;20.00;;
10863;SDS011;5485;37.558;126.950;2023-10-13T05:35:30;26.50;;;21.13;;
10863;SDS011;5485;37.558;126.950;2023-10-13T05:38:16;25.92;;;20.58;;
10863;SDS011;5485;37.558;126.950;2023-10-13T05:41:02;26.95;;;18.95;;
10863;SDS011;5485;37.558;126.950;2023-10-13T05:43:48;22.05;;;19.85;;
10863;SDS011;5485;37.558;126.950;2023-10-13T05:46:33;22.58;;;19.98;;
10863;SDS011;5485;37.558;126.950;2023-10-13T05:49:04;28.00;;;22.00;;
10863;SDS011;5485;37.558;126.950;2023-10-13T05:51:35;24.92;;;22.00;;
10863;SDS011;5485;37.558;126.950;2023-10-13T05:54:05;25.80;;;19.50;;
10863;SDS011;5485;37.558;126.950;2023-10-13T05:56:48;24.02;;;20.45;;
10863;SDS011;5485;37.558;126.950;2023-10-13T05:59:54;22.42;;;19.05;;
10863;SDS011;5485;37.558;126.950;2023-10-13T06:02:39;27.55;;;20.73;;
10863;SDS011;5485;37.558;126.950;2023-10-13T06:05:24;25.98;;;22.20;;
10863;SDS011;5485;37.558;126.950;2023-10-13T06:08:09;24.77;;;22.08;;
10863;SDS011;5485;37.558;126.950;2023-10-13T06:11:00;27.20;;;22.67;;
10863;SDS011;5485;37.558;126.950;2023-10-13T06:13:46;34.15;;;26.08;;
10863;SDS011;5485;37.558;126.950;2023-10-13T06:16:32;33.45;;;26.92;;
10863;SDS011;5485;37.558;126.950;2023-10-13T06:19:16;30.30;;;26.42;;
10863;SDS011;5485;37.558;126.950;2023-10-13T06:22:02;32.05;;;28.38;;
10863;SDS011;5485;37.558;126.950;2023-10-13T06:24:49;36.72;;;30.10;;
10863;SDS011;5485;37.558;126.950;2023-10-13T06:27:34;37.28;;;32.70;;
10863;SDS011;5485;37.558;126.950;2023-10-13T06:30:20;38.63;;;32.55;;
10863;SDS011;5485;37.558;126.950;2023-10-13T06:32:47;38.55;;;32.60;;
10863;SDS011;5485;37.558;126.950;2023-10-13T06:35:15;36.30;;;32.28;;
10863;SDS011;5485;37.558;126.950;2023-10-13T06:37:48;37.35;;;33.05;;
10863;SDS011;5485;37.558;126.950;2023-10-13T06:40:27;42.95;;;32.28;;
10863;SDS011;5485;37.558;126.950;2023-10-13T06:42:57;35.42;;;30.05;;
10863;SDS011;5485;37.558;126.950;2023-10-13T06:45:52;35.47;;;31.70;;
10863;SDS011;5485;37.558;126.950;2023-10-13T06:48:42;38.58;;;34.42;;
10863;SDS011;5485;37.558;126.950;2023-10-13T06:51:09;37.88;;;33.85;;
10863;SDS011;5485;37.558;126.950;2023-10-13T06:53:52;45.80;;;33.03;;
10863;SDS011;5485;37.558;126.950;2023-10-13T06:56:22;50.95;;;35.95;;
10863;SDS011;5485;37.558;126.950;2023-10-13T06:58:53;46.03;;;36.13;;
10863;SDS011;5485;37.558;126.950;2023-10-13T07:01:30;37.58;;;32.80;;
10863;SDS011;5485;37.558;126.950;2023-10-13T07:04:06;43.88;;;36.40;;
10863;SDS011;5485;37.558;126.950;2023-10-13T07:06:39;43.42;;;33.20;;
10863;SDS011;5485;37.558;126.950;2023-10-13T07:09:15;44.58;;;35.47;;
10863;SDS011;5485;37.558;126.950;2023-10-13T07:12:00;41.83;;;35.00;;
10863;SDS011;5485;37.558;126.950;2023-10-13T07:14:29;36.30;;;32.40;;
10863;SDS011;5485;37.558;126.950;2023-10-13T07:17:02;30.13;;;26.33;;
10863;SDS011;5485;37.558;126.950;2023-10-13T07:19:31;32.25;;;26.67;;
10863;SDS011;5485;37.558;126.950;2023-10-13T07:21:59;30.27;;;26.48;;
10863;SDS011;5485;37.558;126.950;2023-10-13T07:24:49;31.70;;;26.38;;
10863;SDS011;5485;37.558;126.950;2023-10-13T07:27:18;28.70;;;24.88;;
10863;SDS011;5485;37.558;126.950;2023-10-13T07:29:50;30.77;;;24.35;;
10863;SDS011;5485;37.558;126.950;2023-10-13T07:32:40;30.27;;;24.35;;
10863;SDS011;5485;37.558;126.950;2023-10-13T07:35:17;29.63;;;25.65;;
10863;SDS011;5485;37.558;126.950;2023-10-13T07:37:46;28.98;;;24.80;;
10863;SDS011;5485;37.558;126.950;2023-10-13T07:40:25;31.73;;;24.35;;
10863;SDS011;5485;37.558;126.950;2023-10-13T07:42:52;27.05;;;23.92;;
10863;SDS011;5485;37.558;126.950;2023-10-13T07:45:29;25.08;;;22.52;;
10863;SDS011;5485;37.558;126.950;2023-10-13T07:48:03;25.10;;;22.02;;
10863;SDS011;5485;37.558;126.950;2023-10-13T07:50:58;26.08;;;23.27;;
10863;SDS011;5485;37.558;126.950;2023-10-13T07:53:33;32.08;;;22.23;;
10863;SDS011;5485;37.558;126.950;2023-10-13T07:56:00;26.40;;;21.90;;
10863;SDS011;5485;37.558;126.950;2023-10-13T07:58:31;27.77;;;21.65;;
10863;SDS011;5485;37.558;126.950;2023-10-13T08:00:58;32.38;;;22.65;;
10863;SDS011;5485;37.558;126.950;2023-10-13T08:03:25;28.42;;;23.23;;
10863;SDS011;5485;37.558;126.950;2023-10-13T08:06:09;28.05;;;25.10;;
10863;SDS011;5485;37.558;126.950;2023-10-13T08:08:38;32.38;;;25.73;;
10863;SDS011;5485;37.558;126.950;2023-10-13T08:11:08;33.40;;;26.30;;
10863;SDS011;5485;37.558;126.950;2023-10-13T08:13:49;35.03;;;27.45;;
10863;SDS011;5485;37.558;126.950;2023-10-13T08:16:31;32.35;;;26.92;;
10863;SDS011;5485;37.558;126.950;2023-10-13T08:19:16;32.75;;;26.48;;
10863;SDS011;5485;37.558;126.950;2023-10-13T08:21:55;33.45;;;27.65;;
10863;SDS011;5485;37.558;126.950;2023-10-13T08:24:40;31.98;;;27.33;;
10863;SDS011;5485;37.558;126.950;2023-10-13T08:27:10;31.67;;;27.17;;
10863;SDS011;5485;37.558;126.950;2023-10-13T08:29:57;30.95;;;27.63;;
10863;SDS011;5485;37.558;126.950;2023-10-13T08:32:25;28.55;;;25.50;;
10863;SDS011;5485;37.558;126.950;2023-10-13T08:34:53;29.38;;;25.85;;
10863;SDS011;5485;37.558;126.950;2023-10-13T08:37:21;31.10;;;26.13;;
10863;SDS011;5485;37.558;126.950;2023-10-13T08:39:57;32.53;;;26.50;;
10863;SDS011;5485;37.558;126.950;2023-10-13T08:42:31;30.33;;;27.13;;
10863;SDS011;5485;37.558;126.950;2023-10-13T08:47:55;30.23;;;26.98;;
10863;SDS011;5485;37.558;126.950;2023-10-13T08:50:34;30.63;;;27.33;;
10863;SDS011;5485;37.558;126.950;2023-10-13T08:55:58;29.10;;;25.90;;
10863;SDS011;5485;37.558;126.950;2023-10-13T08:58:43;29.40;;;25.95;;
10863;SDS011;5485;37.558;126.950;2023-10-13T09:01:21;33.25;;;26.73;;
10863;SDS011;5485;37.558;126.950;2023-10-13T09:04:11;29.08;;;25.98;;
10863;SDS011;5485;37.558;126.950;2023-10-13T09:06:53;28.38;;;25.48;;
10863;SDS011;5485;37.558;126.950;2023-10-13T09:12:20;29.55;;;25.60;;
10863;SDS011;5485;37.558;126.950;2023-10-13T09:15:02;36.58;;;27.70;;
10863;SDS011;5485;37.558;126.950;2023-10-13T09:17:43;33.15;;;26.95;;
10863;SDS011;5485;37.558;126.950;2023-10-13T09:20:19;39.85;;;30.15;;
10863;SDS011;5485;37.558;126.950;2023-10-13T09:23:21;26.92;;;22.98;;
10863;SDS011;5485;37.558;126.950;2023-10-13T09:25:51;40.03;;;30.08;;
10863;SDS011;5485;37.558;126.950;2023-10-13T09:28:34;26.73;;;23.35;;
10863;SDS011;5485;37.558;126.950;2023-10-13T09:31:02;35.33;;;24.92;;
10863;SDS011;5485;37.558;126.950;2023-10-13T09:33:35;27.48;;;23.33;;
10863;SDS011;5485;37.558;126.950;2023-10-13T09:36:05;25.67;;;21.60;;
10863;SDS011;5485;37.558;126.950;2023-10-13T09:38:34;26.40;;;21.20;;
10863;SDS011;5485;37.558;126.950;2023-10-13T09:41:05;24.98;;;19.85;;
10863;SDS011;5485;37.558;126.950;2023-10-13T09:43:52;26.65;;;20.80;;
10863;SDS011;5485;37.558;126.950;2023-10-13T09:46:23;28.10;;;21.02;;
10863;SDS011;5485;37.558;126.950;2023-10-13T09:49:05;22.27;;;19.90;;
10863;SDS011;5485;37.558;126.950;2023-10-13T09:52:01;26.80;;;21.02;;
10863;SDS011;5485;37.558;126.950;2023-10-13T09:54:36;25.52;;;22.80;;
10863;SDS011;5485;37.558;126.950;2023-10-13T09:57:14;30.38;;;24.10;;
10863;SDS011;5485;37.558;126.950;2023-10-13T09:59:51;27.83;;;24.30;;
10863;SDS011;5485;37.558;126.950;2023-10-13T10:02:31;29.08;;;25.48;;
10863;SDS011;5485;37.558;126.950;2023-10-13T10:05:00;35.17;;;26.98;;
10863;SDS011;5485;37.558;126.950;2023-10-13T10:07:53;31.27;;;27.92;;
10863;SDS011;5485;37.558;126.950;2023-10-13T10:10:35;31.58;;;28.08;;
10863;SDS011;5485;37.558;126.950;2023-10-13T10:13:34;32.47;;;26.40;;
10863;SDS011;5485;37.558;126.950;2023-10-13T10:16:10;26.10;;;23.42;;
10863;SDS011;5485;37.558;126.950;2023-10-13T10:18:45;27.65;;;24.48;;
10863;SDS011;5485;37.558;126.950;2023-10-13T10:21:13;28.48;;;24.48;;
10863;SDS011;5485;37.558;126.950;2023-10-13T10:23:41;28.13;;;23.35;;
10863;SDS011;5485;37.558;126.950;2023-10-13T10:26:19;26.38;;;21.85;;
10863;SDS011;5485;37.558;126.950;2023-10-13T10:28:46;25.48;;;22.23;;
10863;SDS011;5485;37.558;126.950;2023-10-13T10:31:13;29.38;;;23.08;;
10863;SDS011;5485;37.558;126.950;2023-10-13T10:33:42;26.05;;;23.35;;
10863;SDS011;5485;37.558;126.950;2023-10-13T10:36:11;28.33;;;24.20;;
10863;SDS011;5485;37.558;126.950;2023-10-13T10:38:54;34.70;;;25.38;;
10863;SDS011;5485;37.558;126.950;2023-10-13T10:41:28;31.15;;;26.73;;
10863;SDS011;5485;37.558;126.950;2023-10-13T10:44:17;33.35;;;28.90;;
10863;SDS011;5485;37.558;126.950;2023-10-13T10:47:12;33.08;;;29.27;;
10863;SDS011;5485;37.558;126.950;2023-10-13T10:50:09;33.10;;;29.58;;
10863;SDS011;5485;37.558;126.950;2023-10-13T10:52:45;35.20;;;31.38;;
10863;SDS011;5485;37.558;126.950;2023-10-13T10:55:13;38.80;;;31.80;;
10863;SDS011;5485;37.558;126.950;2023-10-13T10:57:46;35.22;;;30.85;;
10863;SDS011;5485;37.558;126.950;2023-10-13T11:00:18;36.28;;;28.30;;
10863;SDS011;5485;37.558;126.950;2023-10-13T11:02:58;37.53;;;30.05;;
10863;SDS011;5485;37.558;126.950;2023-10-13T11:05:25;30.00;;;26.85;;
10863;SDS011;5485;37.558;126.950;2023-10-13T11:08:23;35.83;;;28.83;;
10863;SDS011;5485;37.558;126.950;2023-10-13T11:10:58;33.00;;;29.00;;
10863;SDS011;5485;37.558;126.950;2023-10-13T11:13:44;32.50;;;27.77;;
10863;SDS011;5485;37.558;126.950;2023-10-13T11:16:22;34.53;;;29.55;;
10863;SDS011;5485;37.558;126.950;2023-10-13T11:19:00;32.15;;;28.20;;
10863;SDS011;5485;37.558;126.950;2023-10-13T11:21:31;31.65;;;28.30;;
10863;SDS011;5485;37.558;126.950;2023-10-13T11:23:58;41.22;;;29.85;;
10863;SDS011;5485;37.558;126.950;2023-10-13T11:26:43;34.92;;;31.35;;
10863;SDS011;5485;37.558;126.950;2023-10-13T11:29:16;32.22;;;28.75;;
10863;SDS011;5485;37.558;126.950;2023-10-13T11:31:48;33.72;;;30.05;;
10863;SDS011;5485;37.558;126.950;2023-10-13T11:34:25;36.80;;;31.85;;
10863;SDS011;5485;37.558;126.950;2023-10-13T11:37:05;33.33;;;29.67;;
10863;SDS011;5485;37.558;126.950;2023-10-13T11:39:50;34.00;;;29.30;;
10863;SDS011;5485;37.558;126.950;2023-10-13T11:42:17;33.38;;;28.23;;
10863;SDS011;5485;37.558;126.950;2023-10-13T11:44:44;31.17;;;27.85;;
10863;SDS011;5485;37.558;126.950;2023-10-13T11:47:11;33.13;;;26.60;;
10863;SDS011;5485;37.558;126.950;2023-10-13T11:49:56;33.03;;;26.00;;
10863;SDS011;5485;37.558;126.950;2023-10-13T11:52:24;29.60;;;26.50;;
10863;SDS011;5485;37.558;126.950;2023-10-13T11:54:53;31.45;;;27.42;;
10863;SDS011;5485;37.558;126.950;2023-10-13T11:57:20;29.90;;;26.67;;
10863;SDS011;5485;37.558;126.950;2023-10-13T11:59:47;29.00;;;25.98;;
10863;SDS011;5485;37.558;126.950;2023-10-13T12:02:22;33.17;;;26.13;;
10863;SDS011;5485;37.558;126.950;2023-10-13T12:04:51;32.13;;;26.42;;
10863;SDS011;5485;37.558;126.950;2023-10-13T12:07:22;28.67;;;25.58;;
10863;SDS011;5485;37.558;126.950;2023-10-13T12:09:53;29.20;;;26.00;;
10863;SDS011;5485;37.558;126.950;2023-10-13T12:12:20;33.53;;;28.75;;
10863;SDS011;5485;37.558;126.950;2023-10-13T12:14:50;30.13;;;25.58;;
10863;SDS011;5485;37.558;126.950;2023-10-13T12:17:24;29.88;;;26.73;;
10863;SDS011;5485;37.558;126.950;2023-10-13T12:20:00;32.17;;;27.10;;
10863;SDS011;5485;37.558;126.950;2023-10-13T12:22:30;29.63;;;25.92;;
10863;SDS011;5485;37.558;126.950;2023-10-13T12:25:16;28.13;;;24.98;;
10863;SDS011;5485;37.558;126.950;2023-10-13T12:27:59;28.98;;;25.00;;
10863;SDS011;5485;37.558;126.950;2023-10-13T12:30:55;26.95;;;23.92;;
10863;SDS011;5485;37.558;126.950;2023-10-13T12:33:27;29.15;;;25.58;;
10863;SDS011;5485;37.558;126.950;2023-10-13T12:36:02;28.10;;;24.95;;
10863;SDS011;5485;37.558;126.950;2023-10-13T12:38:47;27.25;;;22.67;;
10863;SDS011;5485;37.558;126.950;2023-10-13T12:41:14;27.77;;;23.05;;
10863;SDS011;5485;37.558;126.950;2023-10-13T12:44:04;25.63;;;22.95;;
10863;SDS011;5485;37.558;126.950;2023-10-13T12:46:50;25.95;;;22.95;;
10863;SDS011;5485;37.558;126.950;2023-10-13T12:49:36;27.85;;;21.92;;
10863;SDS011;5485;37.558;126.950;2023-10-13T12:52:13;25.25;;;22.70;;
10863;SDS011;5485;37.558;126.950;2023-10-13T12:54:54;26.52;;;23.50;;
10863;SDS011;5485;37.558;126.950;2023-10-13T12:57:24;24.73;;;22.13;;
10863;SDS011;5485;37.558;126.950;2023-10-13T12:59:52;26.25;;;22.25;;
10863;SDS011;5485;37.558;126.950;2023-10-13T13:02:21;24.83;;;22.13;;
10863;SDS011;5485;37.558;126.950;2023-10-13T13:04:52;27.40;;;23.02;;
10863;SDS011;5485;37.558;126.950;2023-10-13T13:07:37;32.35;;;23.77;;
10863;SDS011;5485;37.558;126.950;2023-10-13T13:10:18;26.23;;;23.52;;
10863;SDS011;5485;37.558;126.950;2023-10-13T13:12:46;26.60;;;23.95;;
10863;SDS011;5485;37.558;126.950;2023-10-13T13:15:13;27.15;;;24.23;;
10863;SDS011;5485;37.558;126.950;2023-10-13T13:17:40;28.13;;;24.55;;
10863;SDS011;5485;37.558;126.950;2023-10-13T13:20:08;28.35;;;24.58;;
10863;SDS011;5485;37.558;126.950;2023-10-13T13:22:52;26.20;;;22.73;;
10863;SDS011;5485;37.558;126.950;2023-10-13T13:25:20;25.70;;;23.00;;
10863;SDS011;5485;37.558;126.950;2023-10-13T13:27:58;28.05;;;23.67;;
10863;SDS011;5485;37.558;126.950;2023-10-13T13:30:30;26.52;;;23.63;;
10863;SDS011;5485;37.558;126.950;2023-10-13T13:33:00;29.65;;;25.48;;
10863;SDS011;5485;37.558;126.950;2023-10-13T13:35:37;26.77;;;23.98;;
10863;SDS011;5485;37.558;126.950;2023-10-13T13:38:10;26.73;;;23.85;;
10863;SDS011;5485;37.558;126.950;2023-10-13T13:40:54;28.65;;;23.45;;
10863;SDS011;5485;37.558;126.950;2023-10-13T13:43:21;27.17;;;24.33;;
10863;SDS011;5485;37.558;126.950;2023-10-13T13:46:04;26.40;;;23.70;;
10863;SDS011;5485;37.558;126.950;2023-10-13T13:48:37;32.15;;;25.52;;
10863;SDS011;5485;37.558;126.950;2023-10-13T13:51:06;28.70;;;24.75;;
10863;SDS011;5485;37.558;126.950;2023-10-13T13:53:43;30.98;;;26.10;;
10863;SDS011;5485;37.558;126.950;2023-10-13T13:56:13;30.00;;;25.33;;
10863;SDS011;5485;37.558;126.950;2023-10-13T13:58:44;29.70;;;25.55;;
10863;SDS011;5485;37.558;126.950;2023-10-13T14:01:13;31.80;;;25.67;;
10863;SDS011;5485;37.558;126.950;2023-10-13T14:03:41;26.88;;;24.17;;
10863;SDS011;5485;37.558;126.950;2023-10-13T14:06:11;28.88;;;24.50;;
10863;SDS011;5485;37.558;126.950;2023-10-13T14:08:53;27.40;;;24.48;;
10863;SDS011;5485;37.558;126.950;2023-10-13T14:11:22;25.42;;;22.65;;
10863;SDS011;5485;37.558;126.950;2023-10-13T14:14:09;24.85;;;22.13;;
10863;SDS011;5485;37.558;126.950;2023-10-13T14:17:00;25.52;;;22.65;;
10863;SDS011;5485;37.558;126.950;2023-10-13T14:19:33;25.67;;;22.75;;
10863;SDS011;5485;37.558;126.950;2023-10-13T14:22:05;29.30;;;23.88;;
10863;SDS011;5485;37.558;126.950;2023-10-13T14:24:33;26.10;;;22.42;;
10863;SDS011;5485;37.558;126.950;2023-10-13T14:27:09;27.65;;;24.30;;
10863;SDS011;5485;37.558;126.950;2023-10-13T14:29:51;25.38;;;22.70;;
10863;SDS011;5485;37.558;126.950;2023-10-13T14:32:19;26.73;;;23.08;;
10863;SDS011;5485;37.558;126.950;2023-10-13T14:34:50;29.67;;;24.40;;
10863;SDS011;5485;37.558;126.950;2023-10-13T14:37:20;31.88;;;24.75;;
10863;SDS011;5485;37.558;126.950;2023-10-13T14:39:57;30.23;;;26.38;;
10863;SDS011;5485;37.558;126.950;2023-10-13T14:42:25;30.20;;;27.10;;
10863;SDS011;5485;37.558;126.950;2023-10-13T14:44:54;29.70;;;26.13;;
10863;SDS011;5485;37.558;126.950;2023-10-13T14:47:22;28.77;;;24.98;;
10863;SDS011;5485;37.558;126.950;2023-10-13T14:49:56;29.70;;;26.17;;
10863;SDS011;5485;37.558;126.950;2023-10-13T14:52:29;29.38;;;26.40;;
10863;SDS011;5485;37.558;126.950;2023-10-13T14:54:57;30.27;;;26.02;;
10863;SDS011;5485;37.558;126.950;2023-10-13T23:25:14;57.58;;;48.72;;
10863;SDS011;5485;37.558;126.950;2023-10-13T23:27:43;58.50;;;48.55;;
10863;SDS011;5485;37.558;126.950;2023-10-13T23:30:10;51.58;;;44.05;;
10863;SDS011;5485;37.558;126.950;2023-10-13T23:32:38;55.65;;;48.35;;
10863;SDS011;5485;37.558;126.950;2023-10-13T23:35:05;51.35;;;45.78;;
10863;SDS011;5485;37.558;126.950;2023-10-13T23:37:33;54.45;;;47.50;;
10863;SDS011;5485;37.558;126.950;2023-10-13T23:40:08;50.72;;;45.35;;